createdAt,value
2023-03-18T00:08:24.600Z,196.16
2023-03-18T00:13:56.667Z,197.94
2023-03-18T00:19:28.608Z,199.51
2023-03-18T00:25:00.642Z,197.35
2023-03-18T00:30:32.497Z,199.26
2023-03-18T00:36:04.244Z,199.14
2023-03-18T00:41:36.614Z,199.75
2023-03-18T00:47:08.752Z,197.46
2023-03-18T00:52:40.806Z,199.38
2023-03-18T00:58:12.983Z,199.63
2023-03-18T01:03:45.078Z,199.87
2023-03-18T01:09:18.230Z,201.34
2023-03-18T01:14:50.086Z,202.33
2023-03-18T01:20:22.307Z,200.24
2023-03-18T01:25:54.915Z,200.36
2023-03-18T01:31:26.973Z,201.22
2023-03-18T01:36:59.119Z,204.35
2023-03-18T01:42:31.498Z,204.35
2023-03-18T01:48:03.411Z,204.61
2023-03-18T01:53:35.241Z,205.76
2023-03-18T01:59:07.010Z,203.59
2023-03-18T02:04:39.023Z,204.10
2023-03-18T02:10:11.039Z,205.24
2023-03-18T02:15:42.760Z,205.63
2023-03-18T02:21:14.636Z,205.89
2023-03-18T02:26:46.951Z,204.35
2023-03-18T02:32:18.818Z,202.58
2023-03-18T02:37:50.797Z,202.33
2023-03-18T02:43:23.181Z,203.21
2023-03-18T02:48:55.346Z,203.84
2023-03-18T02:54:27.305Z,205.12
2023-03-18T02:59:59.364Z,207.19
2023-03-18T03:05:31.110Z,204.61
2023-03-18T03:11:03.185Z,204.73
2023-03-18T03:16:35.050Z,204.48
2023-03-18T03:22:06.921Z,206.15
2023-03-18T03:27:38.424Z,207.98
2023-03-18T03:33:10.466Z,207.98
2023-03-18T03:38:42.800Z,207.32
2023-03-18T03:44:14.999Z,211.87
2023-03-18T03:49:47.630Z,217.35
2023-03-18T03:55:19.951Z,220.56
2023-03-18T04:00:52.000Z,221.75
2023-03-18T04:06:23.941Z,222.20
2023-03-18T04:11:56.020Z,225.10
2023-03-18T04:17:28.134Z,225.56
2023-03-18T04:23:00.412Z,226.34
2023-03-18T04:28:32.661Z,228.07
2023-03-18T04:34:04.744Z,228.23
2023-03-18T04:39:36.814Z,229.67
2023-03-18T04:45:08.723Z,227.76
2023-03-18T04:50:41.915Z,227.76
2023-03-18T04:56:14.512Z,226.18
2023-03-18T05:01:46.939Z,227.44
2023-03-18T05:07:19.048Z,229.51
2023-03-18T05:12:51.318Z,230.31
2023-03-18T05:18:23.518Z,230.48
2023-03-18T05:23:55.898Z,230.48
2023-03-18T05:29:28.415Z,229.35
2023-03-18T05:35:00.870Z,229.03
2023-03-18T05:40:33.475Z,227.12
2023-03-18T05:46:05.567Z,225.56
2023-03-18T05:51:39.674Z,227.12
2023-03-18T05:57:11.927Z,224.33
2023-03-18T06:02:44.002Z,222.65
2023-03-18T06:08:16.043Z,225.72
2023-03-18T06:13:48.047Z,224.64
2023-03-18T06:19:20.272Z,225.56
2023-03-18T06:24:52.145Z,222.50
2023-03-18T06:30:24.681Z,224.02
2023-03-18T06:35:56.824Z,220.86
2023-03-18T06:38:08.940Z,223.72
2023-03-18T06:49:13.418Z,224.95
2023-03-18T06:54:46.101Z,224.18
2023-03-18T07:02:39.803Z,222.65
2023-03-18T07:08:11.528Z,225.41
2023-03-18T07:13:43.484Z,217.78
2023-03-18T07:19:15.244Z,218.21
2023-03-18T07:24:46.803Z,212.42
2023-03-18T07:32:40.560Z,204.99
2023-03-18T07:38:12.401Z,204.10
2023-03-18T07:43:44.301Z,197.35
2023-03-18T07:49:16.117Z,190.03
2023-03-18T07:54:48.037Z,185.62
2023-03-18T08:00:19.886Z,182.18
2023-03-18T08:05:52.421Z,177.34
2023-03-18T08:11:24.143Z,173.65
2023-03-18T08:22:25.688Z,166.21
2023-03-18T08:27:57.462Z,165.22
2023-03-18T08:33:29.382Z,160.92
2023-03-18T08:39:01.112Z,156.40
2023-03-18T08:44:32.674Z,150.74
2023-03-18T08:50:04.633Z,146.00
2023-03-18T08:55:36.521Z,142.99
2023-03-18T09:01:11.376Z,140.11
2023-03-18T09:06:40.165Z,138.60
2023-03-18T09:12:12.130Z,135.78
2023-03-18T09:17:56.355Z,130.37
2023-03-18T09:23:15.994Z,129.16
2023-03-18T09:28:48.010Z,126.23
2023-03-18T09:34:19.801Z,125.75
2023-03-18T09:39:51.452Z,124.16
2023-03-18T09:45:23.290Z,119.54
2023-03-18T09:50:55.413Z,120.05
2023-03-18T09:56:27.079Z,117.93
2023-03-18T10:01:59.328Z,100.95
2023-03-18T10:07:31.263Z,103.97
2023-03-18T10:13:03.176Z,106.15
2023-03-18T10:18:35.521Z,106.83
2023-03-18T10:24:07.419Z,107.94
2023-03-18T10:29:39.303Z,110.51
2023-03-18T10:35:11.142Z,111.62
2023-03-18T10:40:42.661Z,111.25
2023-03-18T10:46:14.455Z,109.86
2023-03-18T10:51:45.994Z,111.70
2023-03-18T10:57:17.554Z,113.29
2023-03-18T11:02:49.529Z,114.69
2023-03-18T11:08:21.165Z,115.72
2023-03-18T11:19:22.028Z,117.02
2023-03-18T11:24:53.814Z,116.45
2023-03-18T11:30:33.987Z,117.35
2023-03-18T11:35:57.458Z,119.37
2023-03-18T11:41:29.371Z,118.94
2023-03-18T11:47:01.327Z,118.18
2023-03-18T11:52:33.105Z,117.60
2023-03-18T11:58:05.150Z,119.28
2023-03-18T12:03:37.093Z,121.36
2023-03-18T12:09:09.278Z,122.52
2023-03-18T12:14:40.922Z,122.61
2023-03-18T12:20:13.098Z,123.34
2023-03-18T12:25:45.166Z,123.25
2023-03-18T12:31:16.820Z,122.34
2023-03-18T12:36:48.734Z,121.28
2023-03-18T12:42:20.760Z,122.70
2023-03-18T12:47:52.804Z,121.36
2023-03-18T12:53:24.596Z,121.90
2023-03-18T13:04:26.489Z,122.79
2023-03-18T13:09:59.652Z,123.15
2023-03-18T13:15:31.845Z,124.07
2023-03-18T13:21:03.679Z,123.61
2023-03-18T13:26:35.470Z,123.52
2023-03-18T13:32:07.766Z,123.43
2023-03-18T13:37:39.876Z,124.16
2023-03-18T13:43:11.426Z,124.25
2023-03-18T13:48:43.352Z,122.97
2023-03-18T13:54:15.039Z,123.89
2023-03-18T13:59:46.535Z,122.25
2023-03-18T14:05:18.610Z,121.90
2023-03-18T14:10:50.445Z,122.88
2023-03-18T14:16:22.727Z,124.91
2023-03-18T14:21:54.451Z,125.66
2023-03-18T14:27:26.371Z,125.38
2023-03-18T14:32:58.066Z,125.94
2023-03-18T14:38:30.047Z,125.94
2023-03-18T14:44:02.173Z,126.32
2023-03-18T14:49:34.703Z,127.87
2023-03-18T14:55:06.640Z,126.81
2023-03-18T15:00:39.023Z,127.87
2023-03-18T15:06:11.489Z,129.16
2023-03-18T15:11:43.921Z,128.37
2023-03-18T15:17:16.760Z,129.46
2023-03-18T15:22:48.775Z,129.16
2023-03-18T15:28:20.338Z,128.66
2023-03-18T15:33:52.539Z,129.36
2023-03-18T15:39:25.474Z,129.96
2023-03-18T15:44:57.470Z,130.57
2023-03-18T15:50:29.246Z,130.78
2023-03-18T15:56:01.269Z,129.56
2023-03-18T16:01:33.437Z,129.16
2023-03-18T16:07:05.137Z,128.07
2023-03-18T16:12:37.133Z,129.06
2023-03-18T16:18:09.291Z,128.86
2023-03-18T16:23:41.050Z,129.16
2023-03-18T16:29:12.720Z,129.76
2023-03-18T16:34:46.691Z,129.46
2023-03-18T16:40:16.384Z,128.37
2023-03-18T16:45:48.012Z,130.37
2023-03-18T16:51:20.088Z,130.68
2023-03-18T16:56:53.363Z,131.09
2023-03-18T17:02:25.863Z,131.81
2023-03-18T17:07:58.050Z,131.50
2023-03-18T17:13:29.971Z,133.07
2023-03-18T17:19:01.932Z,131.81
2023-03-18T17:24:33.885Z,131.71
2023-03-18T17:30:06.370Z,131.71
2023-03-18T17:35:38.307Z,132.34
2023-03-18T17:41:10.220Z,132.44
2023-03-18T17:46:42.355Z,133.50
2023-03-18T17:52:15.156Z,133.61
2023-03-18T17:57:47.490Z,134.36
2023-03-18T18:03:19.540Z,134.90
2023-03-18T18:08:51.773Z,136.00
2023-03-18T18:14:24.074Z,136.00
2023-03-18T18:19:56.585Z,137.23
2023-03-18T18:25:28.402Z,136.67
2023-03-18T18:42:00.379Z,138.37
2023-03-18T18:47:32.525Z,137.69
2023-03-18T18:53:04.179Z,138.60
2023-03-18T18:58:36.498Z,137.69
2023-03-18T19:04:09.165Z,138.49
2023-03-18T19:09:41.459Z,139.64
2023-03-18T19:15:15.467Z,141.30
2023-03-18T19:20:44.797Z,140.11
2023-03-18T19:26:16.947Z,139.53
2023-03-18T19:31:49.109Z,140.47
2023-03-18T19:37:21.131Z,140.11
2023-03-18T19:42:53.739Z,140.82
2023-03-18T19:48:25.855Z,140.11
2023-03-18T19:53:58.080Z,141.18
2023-03-18T19:59:38.275Z,141.30
2023-03-18T20:05:02.054Z,141.90
2023-03-18T20:10:34.737Z,142.38
2023-03-18T20:16:07.175Z,142.14
2023-03-18T20:21:39.861Z,141.54
2023-03-18T20:27:11.883Z,143.12
2023-03-18T20:32:44.263Z,143.61
2023-03-18T20:38:16.601Z,144.48
2023-03-18T20:43:48.546Z,144.73
2023-03-18T20:45:59.747Z,148.73
2023-03-18T20:51:31.797Z,148.86
2023-03-18T20:57:03.956Z,151.29
2023-03-18T21:02:35.938Z,149.00
2023-03-18T21:08:07.833Z,150.20
2023-03-18T21:13:39.581Z,153.38
2023-03-18T21:19:11.674Z,154.37
2023-03-18T21:24:43.736Z,156.84
2023-03-18T21:30:15.284Z,157.88
2023-03-18T21:35:47.519Z,158.18
2023-03-18T21:41:19.583Z,157.88
2023-03-18T21:46:51.515Z,159.54
2023-03-18T21:52:23.716Z,161.23
2023-03-18T21:57:55.819Z,160.15
2023-03-18T22:03:27.985Z,159.84
2023-03-18T22:09:00.381Z,160.92
2023-03-18T22:14:32.594Z,162.33
2023-03-18T22:20:05.137Z,162.96
2023-03-18T22:25:37.145Z,164.25
2023-03-18T22:31:09.284Z,162.96
2023-03-18T22:36:41.024Z,161.70
2023-03-18T22:42:12.870Z,163.60
2023-03-18T22:47:44.665Z,162.33
2023-03-18T22:53:16.993Z,162.96
2023-03-18T22:58:49.135Z,164.09
2023-03-18T23:04:21.161Z,166.21
2023-03-18T23:15:23.078Z,166.71
2023-03-18T23:20:55.413Z,167.04
2023-03-18T23:26:27.268Z,165.55
2023-03-18T23:31:59.404Z,168.05
2023-03-18T23:37:31.739Z,168.56
2023-03-18T23:43:03.833Z,170.63
2023-03-18T23:48:35.676Z,170.63
2023-03-18T23:54:08.787Z,171.15
2023-03-18T23:59:40.766Z,173.11
